createdAt,value
2022-09-28T00:03:40.591Z,9.50
2022-09-28T00:08:38.264Z,9.60
2022-09-28T00:13:39.165Z,9.50
2022-09-28T00:18:36.605Z,9.50
2022-09-28T00:23:34.099Z,9.50
2022-09-28T00:28:31.795Z,9.40
2022-09-28T00:33:31.174Z,9.30
2022-09-28T00:38:31.419Z,9.20
2022-09-28T00:43:28.673Z,9.20
2022-09-28T00:48:29.768Z,9.10
2022-09-28T00:53:32.108Z,9.10
2022-09-28T00:58:36.594Z,9.20
2022-09-28T01:03:34.828Z,9.20
2022-09-28T01:08:34.498Z,9.20
2022-09-28T01:13:33.720Z,9.10
2022-09-28T01:18:52.774Z,9.10
2022-09-28T01:24:24.399Z,9.10
2022-09-28T01:29:44.375Z,9.10
2022-09-28T01:34:54.084Z,9.20
2022-09-28T01:39:54.323Z,9.30
2022-09-28T01:44:53.163Z,9.20
2022-09-28T01:50:03.168Z,9.20
2022-09-28T01:55:26.533Z,9.10
2022-09-28T02:00:25.427Z,9.00
2022-09-28T02:05:45.899Z,9.10
2022-09-28T02:11:00.983Z,9.10
2022-09-28T02:16:15.287Z,8.70
2022-09-28T02:21:28.359Z,8.50
2022-09-28T02:26:45.390Z,8.50
2022-09-28T02:31:42.899Z,8.40
2022-09-28T02:36:40.658Z,8.40
2022-09-28T02:41:42.348Z,8.60
2022-09-28T02:46:59.063Z,8.80
2022-09-28T02:52:15.659Z,9.00
2022-09-28T02:57:34.984Z,8.90
2022-09-28T03:03:06.706Z,8.90
2022-09-28T03:08:13.627Z,8.90
2022-09-28T03:13:13.478Z,8.80
2022-09-28T03:18:11.110Z,8.80
2022-09-28T03:23:25.349Z,8.90
2022-09-28T03:28:23.447Z,9.00
2022-09-28T03:33:20.677Z,8.90
2022-09-28T03:38:19.538Z,8.80
2022-09-28T03:43:16.851Z,8.70
2022-09-28T03:48:14.228Z,8.70
2022-09-28T03:53:12.528Z,8.60
2022-09-28T03:58:11.846Z,8.40
2022-09-28T04:03:10.102Z,8.40
2022-09-28T04:08:07.565Z,8.60
2022-09-28T04:13:04.856Z,8.60
2022-09-28T04:18:02.313Z,8.60
2022-09-28T04:22:59.641Z,8.80
2022-09-28T04:28:15.117Z,8.70
2022-09-28T04:33:12.297Z,8.60
2022-09-28T04:38:09.479Z,8.70
2022-09-28T04:43:06.650Z,8.80
2022-09-28T04:48:07.961Z,8.90
2022-09-28T04:53:05.205Z,9.00
2022-09-28T04:58:04.698Z,9.00
2022-09-28T05:03:02.906Z,9.00
2022-09-28T05:08:00.207Z,8.90
2022-09-28T05:12:57.556Z,8.80
2022-09-28T05:17:54.760Z,8.80
2022-09-28T05:22:52.045Z,8.80
2022-09-28T05:27:49.257Z,8.90
2022-09-28T05:32:46.631Z,8.90
2022-09-28T05:37:44.278Z,8.90
2022-09-28T05:42:42.281Z,8.80
2022-09-28T05:47:41.861Z,8.90
2022-09-28T05:52:39.456Z,9.00
2022-09-28T05:57:36.940Z,9.00
2022-09-28T06:02:34.230Z,9.10
2022-09-28T06:07:31.532Z,9.10
2022-09-28T06:12:28.821Z,9.20
2022-09-28T06:17:31.965Z,9.30
2022-09-28T06:22:29.150Z,9.40
2022-09-28T06:27:26.474Z,9.60
2022-09-28T06:32:23.766Z,9.90
2022-09-28T06:37:21.074Z,10.20
2022-09-28T06:42:19.509Z,10.10
2022-09-28T06:47:17.795Z,10.10
2022-09-28T06:52:15.142Z,10.00
2022-09-28T06:57:12.590Z,10.10
2022-09-28T07:02:16.757Z,10.00
2022-09-28T07:07:14.366Z,10.20
2022-09-28T07:12:13.614Z,10.40
2022-09-28T07:17:13.999Z,10.70
2022-09-28T07:22:18.490Z,11.20
2022-09-28T07:27:17.269Z,12.10
2022-09-28T07:32:14.819Z,13.40
2022-09-28T07:37:13.478Z,14.80
2022-09-28T07:42:11.102Z,16.20
2022-09-28T07:47:09.672Z,18.60
2022-09-28T07:52:07.060Z,19.70
2022-09-28T07:57:07.098Z,20.40
2022-09-28T08:02:04.545Z,18.50
2022-09-28T08:07:03.290Z,18.70
2022-09-28T08:12:00.511Z,20.50
2022-09-28T08:16:58.109Z,19.50
2022-09-28T08:21:55.434Z,19.40
2022-09-28T08:26:53.594Z,18.70
2022-09-28T08:31:50.831Z,19.80
2022-09-28T08:36:48.103Z,18.70
2022-09-28T08:41:54.214Z,18.10
2022-09-28T08:47:00.344Z,17.00
2022-09-28T08:52:13.658Z,17.10
2022-09-28T08:57:20.686Z,16.80
2022-09-28T09:02:27.279Z,16.10
2022-09-28T09:07:44.134Z,16.70
2022-09-28T09:13:03.612Z,15.80
2022-09-28T09:18:24.724Z,15.70
2022-09-28T09:23:36.733Z,17.10
2022-09-28T09:29:02.136Z,16.90
2022-09-28T09:34:11.678Z,16.70
2022-09-28T09:39:26.295Z,18.00
2022-09-28T09:45:11.074Z,17.00
2022-09-28T09:50:39.649Z,16.50
2022-09-28T09:55:47.424Z,16.50
2022-09-28T10:00:47.489Z,16.80
2022-09-28T10:05:51.167Z,17.00
2022-09-28T10:11:07.836Z,16.20
2022-09-28T10:16:07.037Z,15.80
2022-09-28T10:21:04.799Z,15.30
2022-09-28T10:26:15.960Z,15.40
2022-09-28T10:31:35.658Z,15.20
2022-09-28T10:36:42.526Z,15.50
2022-09-28T10:41:50.160Z,15.50
2022-09-28T10:46:57.113Z,15.80
2022-09-28T10:51:56.554Z,15.80
2022-09-28T10:56:55.555Z,15.90
2022-09-28T11:02:20.806Z,16.10
2022-09-28T11:07:26.437Z,16.20
2022-09-28T11:12:26.547Z,15.80
2022-09-28T11:17:27.438Z,15.60
2022-09-28T11:22:33.934Z,15.90
2022-09-28T11:27:31.389Z,15.80
2022-09-28T11:32:44.798Z,15.70
2022-09-28T11:38:16.798Z,15.60
2022-09-28T11:43:25.001Z,15.50
2022-09-28T11:48:32.435Z,15.80
2022-09-28T11:53:41.957Z,16.20
2022-09-28T11:58:47.261Z,16.30
2022-09-28T12:03:50.509Z,16.20
2022-09-28T12:08:54.325Z,16.10
2022-09-28T12:13:54.411Z,16.10
2022-09-28T12:19:23.615Z,16.30
2022-09-28T12:24:44.343Z,16.40
2022-09-28T12:29:44.299Z,16.40
2022-09-28T12:34:43.385Z,16.40
2022-09-28T12:39:59.933Z,16.00
2022-09-28T12:45:27.924Z,15.80
2022-09-28T12:50:54.668Z,16.30
2022-09-28T12:56:04.745Z,16.30
2022-09-28T13:01:33.041Z,16.20
2022-09-28T13:06:36.490Z,16.10
2022-09-28T13:11:37.608Z,16.20
2022-09-28T13:17:56.683Z,16.40
2022-09-28T13:23:18.164Z,16.20
2022-09-28T13:28:16.924Z,16.10
2022-09-28T13:33:37.065Z,15.80
2022-09-28T13:38:49.660Z,15.50
2022-09-28T13:44:11.032Z,15.40
2022-09-28T13:49:48.141Z,15.50
2022-09-28T13:54:54.171Z,15.40
2022-09-28T14:00:03.292Z,15.30
2022-09-28T14:05:04.798Z,15.30
2022-09-28T14:10:18.427Z,15.30
2022-09-28T14:15:39.618Z,15.20
2022-09-28T14:20:37.358Z,15.30
2022-09-28T14:25:42.814Z,15.20
2022-09-28T14:30:43.391Z,15.20
2022-09-28T14:35:41.726Z,15.20
2022-09-28T14:41:09.690Z,15.10
2022-09-28T14:46:17.213Z,14.90
2022-09-28T14:51:26.966Z,14.70
2022-09-28T14:56:27.058Z,14.50
2022-09-28T15:01:28.311Z,14.60
2022-09-28T15:06:46.115Z,14.50
2022-09-28T15:11:43.547Z,14.70
2022-09-28T15:16:40.838Z,14.90
2022-09-28T15:21:41.090Z,15.10
2022-09-28T15:26:38.374Z,15.00
2022-09-28T15:31:36.580Z,14.60
2022-09-28T15:36:41.099Z,14.40
2022-09-28T15:41:38.419Z,14.40
2022-09-28T15:46:39.035Z,14.30
2022-09-28T15:51:53.011Z,14.10
2022-09-28T15:56:59.949Z,13.90
2022-09-28T16:02:22.787Z,13.70
2022-09-28T16:07:39.826Z,13.60
2022-09-28T16:12:38.133Z,13.50
2022-09-28T16:17:36.772Z,13.50
2022-09-28T16:22:34.099Z,13.40
2022-09-28T16:27:43.055Z,13.40
2022-09-28T16:32:57.377Z,13.30
2022-09-28T16:37:57.471Z,13.20
2022-09-28T16:42:58.472Z,13.30
2022-09-28T16:47:57.478Z,13.10
2022-09-28T16:53:30.945Z,12.90
2022-09-28T16:58:34.965Z,13.00
2022-09-28T17:03:32.327Z,13.00
2022-09-28T17:08:29.729Z,13.10
2022-09-28T17:13:33.584Z,12.90
2022-09-28T17:18:32.320Z,12.80
2022-09-28T17:23:29.569Z,12.80
2022-09-28T17:28:31.479Z,12.80
2022-09-28T17:33:29.974Z,12.60
2022-09-28T17:38:30.674Z,12.70
2022-09-28T17:43:27.940Z,12.60
2022-09-28T17:48:26.016Z,12.50
2022-09-28T17:53:23.236Z,12.50
2022-09-28T17:58:22.536Z,12.60
2022-09-28T18:03:30.657Z,12.50
2022-09-28T18:08:28.337Z,12.40
2022-09-28T18:13:26.521Z,12.40
2022-09-28T18:18:24.785Z,12.50
2022-09-28T18:23:22.433Z,12.40
2022-09-28T18:28:20.909Z,12.50
2022-09-28T18:33:18.921Z,12.50
2022-09-28T18:38:16.059Z,12.30
2022-09-28T18:43:13.363Z,12.00
2022-09-28T18:48:11.052Z,11.80
2022-09-28T18:53:12.817Z,11.70
2022-09-28T18:58:11.784Z,11.40
2022-09-28T19:03:11.589Z,11.40
2022-09-28T19:08:09.022Z,11.30
2022-09-28T19:13:06.467Z,11.10
2022-09-28T19:18:04.138Z,11.10
2022-09-28T19:23:01.765Z,11.30
2022-09-28T19:27:59.092Z,11.40
2022-09-28T19:32:56.365Z,11.30
2022-09-28T19:37:53.931Z,11.20
2022-09-28T19:42:52.142Z,11.00
2022-09-28T19:47:49.662Z,10.80
2022-09-28T19:52:46.945Z,10.60
2022-09-28T19:57:48.212Z,10.40
2022-09-28T20:02:45.453Z,10.40
2022-09-28T20:07:43.100Z,10.50
2022-09-28T20:12:42.595Z,10.70
2022-09-28T20:17:39.946Z,10.70
2022-09-28T20:22:37.431Z,10.50
2022-09-28T20:27:34.825Z,10.30
2022-09-28T20:32:32.894Z,10.20
2022-09-28T20:37:31.087Z,10.30
2022-09-28T20:42:32.201Z,10.50
2022-09-28T20:47:29.971Z,10.70
2022-09-28T20:52:27.370Z,10.60
2022-09-28T20:57:25.044Z,10.60
2022-09-28T21:02:25.639Z,10.70
2022-09-28T21:07:22.936Z,10.80
2022-09-28T21:12:20.496Z,10.70
2022-09-28T21:17:18.051Z,10.50
2022-09-28T21:22:15.157Z,10.60
2022-09-28T21:27:12.321Z,10.60
2022-09-28T21:32:09.662Z,10.70
2022-09-28T21:37:06.841Z,10.80
2022-09-28T21:42:04.152Z,10.80
2022-09-28T21:47:01.346Z,10.70
2022-09-28T21:51:58.689Z,10.70
2022-09-28T21:56:56.080Z,10.80
2022-09-28T22:01:54.268Z,10.70
2022-09-28T22:06:51.561Z,10.80
2022-09-28T22:11:49.604Z,10.90
2022-09-28T22:16:46.876Z,10.90
2022-09-28T22:21:44.624Z,11.00
2022-09-28T22:26:42.195Z,11.00
2022-09-28T22:31:41.705Z,10.90
2022-09-28T22:36:39.290Z,10.80
2022-09-28T22:41:36.642Z,10.90
2022-09-28T22:46:33.964Z,10.80
2022-09-28T22:51:31.741Z,11.00
2022-09-28T22:56:29.244Z,10.90
2022-09-28T23:01:29.056Z,11.00
2022-09-28T23:06:28.546Z,10.90
2022-09-28T23:11:25.704Z,11.00
2022-09-28T23:16:25.770Z,10.90
2022-09-28T23:21:26.013Z,10.80
2022-09-28T23:26:26.765Z,10.70
2022-09-28T23:31:28.147Z,10.70
2022-09-28T23:36:25.778Z,10.90
2022-09-28T23:41:23.144Z,10.80
2022-09-28T23:46:21.211Z,10.90
2022-09-28T23:51:19.123Z,11.00
2022-09-28T23:56:16.554Z,11.10
